Alexander Maersk — OZRC2 — position and weather

sailwx.info

Track history (hours):
 
Tides and Currents Weather Stations Pressure Air Temp Water Temp Dewpoint Dewpoint Depression Visibility Wind Speed Wind Dir Waves Ship Positions

Alexander Maersk

Last reported at 2016-May-25 15:33 UTC. Time now 2016-May-26 06:51 UTC.
Position N 34°40' E 011°45'.

Length 155 m; draft 7.2 m.

Type: Cargo ship. MMSI: 219470000.

Date/timePositionNaut miles runAvg speedWind from/ knotsBaromVisibWave heightAir tempDewpointWater temp
2016-May-25 15:33N 34°40' E 011°45'9 8.9
2016-May-25 14:33N 34°43' E 011°55'9 9.2
2016-May-25 13:33N 34°48' E 012°05'10 9.3
2016-May-25 12:31N 34°53' E 012°14'9 9.3
2016-May-25 11:33N 34°57' E 012°24'9 9.3
2016-May-25 10:33N 35°01' E 012°34'9 9.2
2016-May-25 09:33N 35°04' E 012°45'9 9.0
2016-May-25 08:34N 35°07' E 012°55'1110.6
2016-May-25 07:33N 35°11' E 013°07'1211.7
2016-May-25 06:33N 35°17' E 013°20'10 8.8
2016-May-25 05:25N 35°22' E 013°30'7 8.5
2016-May-25 04:33N 35°25' E 013°38'9 8.7
2016-May-25 03:33N 35°29' E 013°47'9 8.5
2016-May-25 02:33N 35°33' E 013°57'8 8.4
2016-May-25 01:33N 35°36' E 014°07'9 8.6
2016-May-25 00:33N 35°40' E 014°16'9 8.6
2016-May-24 23:33N 35°44' E 014°26'8 7.2
2016-May-24 22:25N 35°49' E 014°33'1 0.7
2016-May-24 21:28N 35°49' E 014°32'0 0.0
2016-May-24 20:16N 35°49' E 014°32'0 0.0
2016-May-24 19:28N 35°49' E 014°32'0 0.0
2016-May-24 18:31N 35°49' E 014°32'0 0.0
2016-May-24 17:31N 35°49' E 014°32'0 0.0
2016-May-24 16:31N 35°49' E 014°32'0 0.0
2016-May-24 15:31N 35°49' E 014°32'0 0.0
2016-May-24 14:31N 35°49' E 014°32'0 0.0
2016-May-24 13:28N 35°49' E 014°32'0 0.0
2016-May-24 12:31N 35°49' E 014°32'0 0.0
2016-May-24 11:34N 35°49' E 014°32'0 0.0
2016-May-24 10:31N 35°49' E 014°32'0 0.0
2016-May-24 09:28N 35°49' E 014°32'0 0.0
2016-May-24 08:31N 35°49' E 014°32'0 0.0
2016-May-24 07:31N 35°49' E 014°32'0 0.0
2016-May-24 06:31N 35°49' E 014°32'0 0.0
2016-May-24 05:31N 35°49' E 014°32'0 0.0
2016-May-24 04:31N 35°49' E 014°32'0 0.0
2016-May-24 03:31N 35°49' E 014°32'0 0.0
2016-May-24 02:31N 35°49' E 014°32'0 0.0
2016-May-24 01:31N 35°49' E 014°32'0 0.0
2016-May-23 20:07N 35°49' E 014°32'0 0.0
2016-May-23 18:19N 35°49' E 014°32'0 0.0
2016-May-23 17:28N 35°49' E 014°32'0 0.1
2016-May-23 13:33N 35°49' E 014°33'3 3.1
2016-May-23 12:33N 35°47' E 014°36'3 3.4
2016-May-23 11:32N 35°44' E 014°34'9 4.5
2016-May-23 09:33N 35°40' E 014°24'8 8.1
2016-May-23 08:33N 35°37' E 014°15'10 9.9
2016-May-23 07:33N 35°33' E 014°04'10 9.8
2016-May-23 06:33N 35°30' E 013°53'10 9.8
2016-May-23 05:33N 35°26' E 013°42'10 9.8
2016-May-23 04:33N 35°22' E 013°31'20 9.6
2016-May-23 02:31N 35°13' E 013°10'9 9.3
2016-May-23 01:33N 35°09' E 012°60'9 9.4
2016-May-23 00:33N 35°04' E 012°49'9 9.3
2016-May-22 23:33N 35°01' E 012°39'9 9.3
2016-May-22 22:33N 34°57' E 012°29'9 9.4
2016-May-22 21:33N 34°53' E 012°19'9 9.3
2016-May-22 20:33N 34°48' E 012°08'9 9.3
2016-May-22 19:33N 34°44' E 011°58'10 9.5
2016-May-22 18:33N 34°40' E 011°48'10 9.6
2016-May-22 17:33N 34°35' E 011°38'9 9.5
2016-May-22 16:33N 34°31' E 011°27'9 9.3
2016-May-22 15:33N 34°27' E 011°17'9 8.7
2016-May-22 14:33N 34°25' E 011°07'9 8.6
2016-May-22 13:33N 34°26' E 010°56'  
2016-May-18 17:05N 34°41' E 010°50'  
Track history (hours):
 
Tides and Currents Weather Stations Pressure Air Temp Water Temp Dewpoint Dewpoint Depression Visibility Wind Speed Wind Dir Waves Ship Positions

Alexander Maersk

Last reported at 2016-May-25 15:33 UTC. Time now 2016-May-26 06:51 UTC.
Position N 34°40' E 011°45'.

Length 155 m; draft 7.2 m.

Type: Cargo ship. MMSI: 219470000.

Date/timePositionNaut miles runAvg speedWind from/ knotsBaromVisibWave heightAir tempDewpointWater temp
2016-May-25 15:33N 34°40' E 011°45'9 8.9
2016-May-25 14:33N 34°43' E 011°55'9 9.2
2016-May-25 13:33N 34°48' E 012°05'10 9.3
2016-May-25 12:31N 34°53' E 012°14'9 9.3
2016-May-25 11:33N 34°57' E 012°24'9 9.3
2016-May-25 10:33N 35°01' E 012°34'9 9.2
2016-May-25 09:33N 35°04' E 012°45'9 9.0
2016-May-25 08:34N 35°07' E 012°55'1110.6
2016-May-25 07:33N 35°11' E 013°07'1211.7
2016-May-25 06:33N 35°17' E 013°20'10 8.8
2016-May-25 05:25N 35°22' E 013°30'7 8.5
2016-May-25 04:33N 35°25' E 013°38'9 8.7
2016-May-25 03:33N 35°29' E 013°47'9 8.5
2016-May-25 02:33N 35°33' E 013°57'8 8.4
2016-May-25 01:33N 35°36' E 014°07'9 8.6
2016-May-25 00:33N 35°40' E 014°16'9 8.6
2016-May-24 23:33N 35°44' E 014°26'8 7.2
2016-May-24 22:25N 35°49' E 014°33'1 0.7
2016-May-24 21:28N 35°49' E 014°32'0 0.0
2016-May-24 20:16N 35°49' E 014°32'0 0.0
2016-May-24 19:28N 35°49' E 014°32'0 0.0
2016-May-24 18:31N 35°49' E 014°32'0 0.0
2016-May-24 17:31N 35°49' E 014°32'0 0.0
2016-May-24 16:31N 35°49' E 014°32'0 0.0
2016-May-24 15:31N 35°49' E 014°32'0 0.0
2016-May-24 14:31N 35°49' E 014°32'0 0.0
2016-May-24 13:28N 35°49' E 014°32'0 0.0
2016-May-24 12:31N 35°49' E 014°32'0 0.0
2016-May-24 11:34N 35°49' E 014°32'0 0.0
2016-May-24 10:31N 35°49' E 014°32'0 0.0
2016-May-24 09:28N 35°49' E 014°32'0 0.0
2016-May-24 08:31N 35°49' E 014°32'0 0.0
2016-May-24 07:31N 35°49' E 014°32'0 0.0
2016-May-24 06:31N 35°49' E 014°32'0 0.0
2016-May-24 05:31N 35°49' E 014°32'0 0.0
2016-May-24 04:31N 35°49' E 014°32'0 0.0
2016-May-24 03:31N 35°49' E 014°32'0 0.0
2016-May-24 02:31N 35°49' E 014°32'0 0.0
2016-May-24 01:31N 35°49' E 014°32'0 0.0
2016-May-23 20:07N 35°49' E 014°32'0 0.0
2016-May-23 18:19N 35°49' E 014°32'0 0.0
2016-May-23 17:28N 35°49' E 014°32'0 0.1
2016-May-23 13:33N 35°49' E 014°33'3 3.1
2016-May-23 12:33N 35°47' E 014°36'3 3.4
2016-May-23 11:32N 35°44' E 014°34'9 4.5
2016-May-23 09:33N 35°40' E 014°24'8 8.1
2016-May-23 08:33N 35°37' E 014°15'10 9.9
2016-May-23 07:33N 35°33' E 014°04'10 9.8
2016-May-23 06:33N 35°30' E 013°53'10 9.8
2016-May-23 05:33N 35°26' E 013°42'10 9.8
2016-May-23 04:33N 35°22' E 013°31'20 9.6
2016-May-23 02:31N 35°13' E 013°10'9 9.3
2016-May-23 01:33N 35°09' E 012°60'9 9.4
2016-May-23 00:33N 35°04' E 012°49'9 9.3
2016-May-22 23:33N 35°01' E 012°39'9 9.3
2016-May-22 22:33N 34°57' E 012°29'9 9.4
2016-May-22 21:33N 34°53' E 012°19'9 9.3
2016-May-22 20:33N 34°48' E 012°08'9 9.3
2016-May-22 19:33N 34°44' E 011°58'10 9.5
2016-May-22 18:33N 34°40' E 011°48'10 9.6
2016-May-22 17:33N 34°35' E 011°38'9 9.5
2016-May-22 16:33N 34°31' E 011°27'9 9.3
2016-May-22 15:33N 34°27' E 011°17'9 8.7
2016-May-22 14:33N 34°25' E 011°07'9 8.6
2016-May-22 13:33N 34°26' E 010°56'  
2016-May-18 17:05N 34°41' E 010°50'  

Dump ship's entire track history